createdAt,value
2023-05-25T00:00:36.137Z,12.45
2023-05-25T00:03:26.229Z,14.95
2023-05-25T00:06:13.613Z,9.53
2023-05-25T00:09:01.026Z,12.55
2023-05-25T00:11:48.605Z,9.45
2023-05-25T00:14:36.228Z,12.25
2023-05-25T00:17:28.378Z,11.35
2023-05-25T00:20:16.254Z,10.93
2023-05-25T00:23:03.706Z,10.90
2023-05-25T00:25:51.349Z,11.78
2023-05-25T00:28:39.085Z,16.23
2023-05-25T00:31:26.866Z,11.70
2023-05-25T00:34:13.823Z,11.95
2023-05-25T00:37:01.410Z,12.33
2023-05-25T00:39:49.100Z,12.58
2023-05-25T00:42:38.053Z,12.23
2023-05-25T00:45:25.410Z,18.75
2023-05-25T00:48:13.921Z,13.10
2023-05-25T00:51:01.664Z,14.10
2023-05-25T00:53:49.234Z,15.10
2023-05-25T00:56:39.405Z,12.45
2023-05-25T00:59:37.020Z,20.88
2023-05-25T01:02:26.861Z,12.98
2023-05-25T01:05:17.365Z,11.68
2023-05-25T01:08:07.912Z,14.87
2023-05-25T01:10:57.432Z,16.87
2023-05-25T01:13:46.161Z,14.50
2023-05-25T01:16:34.449Z,16.67
2023-05-25T01:19:21.812Z,14.60
2023-05-25T01:22:15.654Z,16.07
2023-05-25T01:25:06.288Z,16.00
2023-05-25T01:27:56.673Z,13.80
2023-05-25T01:30:46.897Z,15.25
2023-05-25T01:33:55.414Z,14.73
2023-05-25T01:36:43.096Z,17.80
2023-05-25T01:39:31.057Z,15.25
2023-05-25T01:42:18.351Z,14.60
2023-05-25T01:45:07.068Z,15.05
2023-05-25T01:48:06.932Z,20.85
2023-05-25T01:50:57.365Z,13.60
2023-05-25T01:53:55.820Z,14.18
2023-05-25T01:56:46.705Z,14.05
2023-05-25T01:59:35.288Z,16.15
2023-05-25T02:02:22.888Z,15.93
2023-05-25T02:05:11.492Z,15.75
2023-05-25T02:07:58.877Z,25.35
2023-05-25T02:10:46.575Z,19.92
2023-05-25T02:13:34.370Z,20.20
2023-05-25T02:16:22.119Z,13.60
2023-05-25T02:19:11.566Z,15.20
2023-05-25T02:21:58.891Z,19.80
2023-05-25T02:24:46.569Z,17.45
2023-05-25T02:27:35.583Z,14.98
2023-05-25T02:30:22.977Z,15.55
2023-05-25T02:33:10.655Z,19.00
2023-05-25T02:35:58.402Z,13.50
2023-05-25T02:38:47.324Z,16.35
2023-05-25T02:41:34.648Z,16.67
2023-05-25T02:44:24.002Z,12.80
2023-05-25T02:47:11.721Z,18.45
2023-05-25T02:49:59.194Z,16.37
2023-05-25T02:52:46.767Z,18.35
2023-05-25T02:55:34.503Z,14.98
2023-05-25T02:58:22.498Z,22.05
2023-05-25T03:01:11.132Z,19.95
2023-05-25T03:03:58.955Z,14.98
2023-05-25T03:06:46.115Z,14.28
2023-05-25T03:09:33.830Z,13.60
2023-05-25T03:12:21.170Z,17.75
2023-05-25T03:15:09.335Z,20.02
2023-05-25T03:17:58.059Z,14.53
2023-05-25T03:20:45.771Z,15.83
2023-05-25T03:23:33.100Z,15.30
2023-05-25T03:26:20.320Z,13.08
2023-05-25T03:29:08.169Z,14.80
2023-05-25T03:31:55.919Z,15.08
2023-05-25T03:34:44.969Z,17.82
2023-05-25T03:37:32.460Z,13.70
2023-05-25T03:40:20.298Z,13.95
2023-05-25T03:43:07.691Z,12.40
2023-05-25T03:45:55.052Z,13.45
2023-05-25T03:48:42.420Z,15.85
2023-05-25T03:51:30.095Z,13.55
2023-05-25T03:54:17.437Z,15.80
2023-05-25T03:57:04.908Z,13.98
2023-05-25T03:59:52.398Z,13.30
2023-05-25T04:02:39.850Z,16.12
2023-05-25T04:05:27.332Z,16.65
2023-05-25T04:08:19.740Z,19.37
2023-05-25T04:11:07.729Z,20.85
2023-05-25T04:13:55.627Z,17.45
2023-05-25T04:16:43.685Z,14.53
2023-05-25T04:19:31.186Z,15.80
2023-05-25T04:22:19.072Z,10.40
2023-05-25T04:25:09.326Z,16.87
2023-05-25T04:27:56.931Z,15.35
2023-05-25T04:30:44.581Z,11.18
2023-05-25T04:33:32.254Z,13.58
2023-05-25T04:36:20.245Z,14.13
2023-05-25T04:39:07.956Z,14.45
2023-05-25T04:41:57.316Z,11.90
2023-05-25T04:44:44.647Z,8.93
2023-05-25T04:47:32.399Z,20.23
2023-05-25T04:50:20.414Z,14.80
2023-05-25T04:53:08.225Z,14.33
2023-05-25T04:55:55.708Z,15.75
2023-05-25T04:58:43.317Z,15.78
2023-05-25T05:01:31.530Z,13.40
2023-05-25T05:04:18.970Z,12.55
2023-05-25T05:07:09.131Z,12.30
2023-05-25T05:09:56.500Z,14.83
2023-05-25T05:12:43.918Z,9.98
2023-05-25T05:15:31.222Z,13.68
2023-05-25T05:18:18.687Z,13.75
2023-05-25T05:21:06.576Z,17.45
2023-05-25T05:23:54.246Z,13.65
2023-05-25T05:26:56.356Z,14.60
2023-05-25T05:29:30.752Z,14.07
2023-05-25T05:32:18.598Z,13.40
2023-05-25T05:35:06.491Z,14.83
2023-05-25T05:37:54.116Z,14.70
2023-05-25T05:40:41.475Z,20.65
2023-05-25T05:43:29.036Z,10.60
2023-05-25T05:46:16.506Z,12.73
2023-05-25T05:49:09.607Z,15.98
2023-05-25T05:51:57.379Z,10.93
2023-05-25T05:54:44.642Z,20.92
2023-05-25T05:57:32.365Z,10.00
2023-05-25T06:00:20.313Z,13.20
2023-05-25T06:03:08.164Z,11.60
2023-05-25T06:05:55.759Z,10.40
2023-05-25T06:08:44.446Z,13.72
2023-05-25T06:11:31.997Z,11.97
2023-05-25T06:14:19.662Z,15.45
2023-05-25T06:17:07.187Z,12.88
2023-05-25T06:19:54.970Z,15.60
2023-05-25T06:22:42.238Z,17.35
2023-05-25T06:25:29.786Z,16.05
2023-05-25T06:28:17.267Z,11.22
2023-05-25T06:31:04.812Z,14.23
2023-05-25T06:33:52.410Z,14.03
2023-05-25T06:36:41.795Z,15.00
2023-05-25T06:39:29.089Z,13.55
2023-05-25T06:42:16.697Z,10.70
2023-05-25T06:45:04.457Z,12.37
2023-05-25T06:47:51.949Z,14.30
2023-05-25T06:50:40.101Z,19.10
2023-05-25T06:53:27.451Z,17.57
2023-05-25T06:56:14.856Z,16.45
2023-05-25T06:59:02.262Z,14.78
2023-05-25T07:01:50.318Z,10.20
2023-05-25T07:04:37.946Z,14.58
2023-05-25T07:07:25.802Z,13.58
2023-05-25T07:10:13.358Z,16.90
2023-05-25T07:13:00.965Z,13.55
2023-05-25T07:15:48.868Z,15.18
2023-05-25T07:18:38.148Z,17.30
2023-05-25T07:21:25.671Z,17.25
2023-05-25T07:24:12.996Z,16.55
2023-05-25T07:27:01.938Z,14.47
2023-05-25T07:29:49.584Z,10.98
2023-05-25T07:32:38.501Z,10.35
2023-05-25T07:35:26.489Z,16.15
2023-05-25T07:38:14.110Z,18.35
2023-05-25T07:41:01.680Z,10.90
2023-05-25T07:43:49.405Z,9.98
2023-05-25T07:46:37.401Z,12.33
2023-05-25T07:49:25.025Z,12.45
2023-05-25T07:52:13.452Z,12.23
2023-05-25T07:55:01.351Z,8.50
2023-05-25T07:57:48.773Z,10.18
2023-05-25T08:00:36.328Z,8.60
2023-05-25T08:03:35.788Z,8.58
2023-05-25T08:06:13.772Z,8.18
2023-05-25T08:09:01.490Z,8.58
2023-05-25T08:11:48.843Z,11.43
2023-05-25T08:14:36.216Z,9.90
2023-05-25T08:17:23.819Z,9.15
2023-05-25T08:20:11.562Z,9.05
2023-05-25T08:22:59.319Z,7.40
2023-05-25T08:25:47.001Z,6.53
2023-05-25T08:28:34.856Z,4.78
2023-05-25T08:31:22.572Z,5.37
2023-05-25T08:34:10.060Z,10.50
2023-05-25T08:36:58.961Z,10.45
2023-05-25T08:39:46.729Z,8.83
2023-05-25T08:42:34.440Z,8.63
2023-05-25T08:45:34.357Z,9.30
2023-05-25T08:48:23.784Z,7.50
2023-05-25T08:51:12.112Z,8.53
2023-05-25T08:54:03.058Z,7.50
2023-05-25T08:56:53.308Z,10.40
2023-05-25T08:59:56.298Z,9.63
2023-05-25T09:02:46.892Z,8.08
2023-05-25T09:05:38.009Z,12.80
2023-05-25T09:08:27.161Z,8.33
2023-05-25T09:11:17.364Z,9.60
2023-05-25T09:14:04.950Z,5.30
2023-05-25T09:16:52.965Z,8.13
2023-05-25T09:19:40.629Z,10.18
2023-05-25T09:22:28.949Z,7.95
2023-05-25T09:25:23.017Z,7.30
2023-05-25T09:31:00.130Z,9.93
2023-05-25T09:33:47.911Z,8.35
2023-05-25T09:36:38.290Z,9.00
2023-05-25T09:39:27.281Z,8.10
2023-05-25T09:42:14.888Z,12.45
2023-05-25T09:45:03.071Z,6.20
2023-05-25T09:47:52.305Z,10.32
2023-05-25T09:50:39.968Z,8.83
2023-05-25T09:53:28.082Z,9.35
2023-05-25T09:56:17.386Z,7.92
2023-05-25T09:59:04.820Z,6.50
2023-05-25T10:01:54.797Z,7.28
2023-05-25T10:04:42.229Z,6.92
2023-05-25T10:07:31.535Z,9.33
2023-05-25T10:10:19.556Z,6.30
2023-05-25T10:13:09.671Z,6.78
2023-05-25T10:15:59.374Z,7.35
2023-05-25T10:19:09.848Z,7.12
2023-05-25T10:22:00.487Z,8.30
2023-05-25T10:24:56.366Z,5.75
2023-05-25T10:27:46.972Z,7.60
2023-05-25T10:30:36.980Z,6.20
2023-05-25T10:33:25.467Z,5.00
2023-05-25T10:36:14.290Z,6.05
2023-05-25T10:39:03.335Z,6.28
2023-05-25T10:41:53.493Z,5.80
2023-05-25T10:44:42.907Z,9.75
2023-05-25T10:47:31.195Z,8.28
2023-05-25T10:50:28.830Z,8.78
2023-05-25T10:53:16.497Z,5.90
2023-05-25T10:56:06.408Z,7.90
2023-05-25T10:58:54.305Z,7.78
2023-05-25T11:01:51.912Z,7.28
2023-05-25T11:04:39.508Z,7.65
2023-05-25T11:07:27.516Z,11.65
2023-05-25T11:10:15.857Z,6.95
2023-05-25T11:13:27.241Z,6.22
2023-05-25T11:16:26.151Z,7.35
2023-05-25T11:19:18.366Z,8.53
2023-05-25T11:22:25.534Z,8.95
2023-05-25T11:28:18.319Z,5.25
2023-05-25T11:31:07.780Z,5.47
2023-05-25T11:34:01.023Z,7.35
2023-05-25T11:36:49.517Z,12.03
2023-05-25T11:39:37.046Z,10.18
2023-05-25T11:42:27.816Z,6.83
2023-05-25T11:45:18.146Z,5.47
2023-05-25T11:48:06.171Z,7.92
2023-05-25T11:51:07.684Z,7.25
2023-05-25T11:53:55.730Z,8.58
2023-05-25T11:56:42.980Z,9.05
2023-05-25T11:59:32.388Z,7.03
2023-05-25T12:02:21.388Z,8.48
2023-05-25T12:05:11.085Z,5.60
2023-05-25T12:07:57.892Z,9.30
2023-05-25T12:10:55.162Z,8.40
2023-05-25T12:13:42.658Z,6.28
2023-05-25T12:16:32.207Z,6.42
2023-05-25T12:19:19.944Z,6.97
2023-05-25T12:22:07.939Z,6.12
2023-05-25T12:24:55.407Z,5.97
2023-05-25T12:27:43.830Z,11.50
2023-05-25T12:30:32.601Z,8.93
2023-05-25T12:33:22.147Z,12.00
2023-05-25T12:36:09.886Z,10.30
2023-05-25T12:39:00.560Z,5.15
2023-05-25T12:41:54.826Z,7.97
2023-05-25T12:44:42.710Z,6.33
2023-05-25T12:47:30.282Z,8.55
2023-05-25T12:50:20.424Z,6.95
2023-05-25T12:53:07.561Z,6.85
2023-05-25T12:56:05.149Z,5.62
2023-05-25T12:58:52.814Z,10.15
2023-05-25T13:01:42.036Z,9.70
2023-05-25T13:04:29.371Z,6.92
2023-05-25T13:07:17.544Z,6.03
2023-05-25T13:10:06.530Z,7.33
2023-05-25T13:12:56.048Z,8.30
2023-05-25T13:15:44.247Z,7.15
2023-05-25T13:18:32.083Z,9.08
2023-05-25T13:21:19.773Z,6.60
2023-05-25T13:24:07.528Z,8.48
2023-05-25T13:26:55.146Z,7.42
2023-05-25T13:29:42.752Z,11.73
2023-05-25T13:32:31.423Z,9.73
2023-05-25T13:35:20.768Z,7.47
2023-05-25T13:38:08.246Z,8.58
2023-05-25T13:40:55.662Z,6.75
2023-05-25T13:43:42.983Z,7.15
2023-05-25T13:46:35.030Z,7.37
2023-05-25T13:49:19.798Z,7.58
2023-05-25T13:52:07.747Z,5.97
2023-05-25T13:54:55.078Z,8.10
2023-05-25T13:57:42.682Z,9.48
2023-05-25T14:00:30.362Z,8.25
2023-05-25T14:03:18.220Z,8.88
2023-05-25T14:06:06.205Z,6.92
2023-05-25T14:08:53.975Z,6.60
2023-05-25T14:11:41.485Z,8.13
2023-05-25T14:14:32.238Z,6.90
2023-05-25T14:17:17.837Z,6.75
2023-05-25T14:20:05.308Z,8.00
2023-05-25T14:22:53.492Z,9.73
2023-05-25T14:25:40.901Z,9.85
2023-05-25T14:28:28.587Z,7.20
2023-05-25T14:31:16.163Z,7.10
2023-05-25T14:34:03.474Z,6.92
2023-05-25T14:36:50.918Z,7.70
2023-05-25T14:39:38.279Z,11.83
2023-05-25T14:42:25.664Z,10.03
2023-05-25T14:45:15.284Z,5.83
2023-05-25T14:48:15.309Z,9.75
2023-05-25T14:50:51.747Z,9.10
2023-05-25T14:53:39.407Z,9.23
2023-05-25T14:56:27.958Z,6.58
2023-05-25T14:59:23.584Z,6.83
2023-05-25T15:02:11.307Z,6.67
2023-05-25T15:04:58.865Z,10.85
2023-05-25T15:07:46.552Z,7.70
2023-05-25T15:10:34.240Z,6.75
2023-05-25T15:13:22.596Z,9.40
2023-05-25T15:16:14.595Z,8.73
2023-05-25T15:19:02.183Z,9.85
2023-05-25T15:21:49.671Z,12.28
2023-05-25T15:24:36.990Z,7.20
2023-05-25T15:27:24.440Z,6.20
2023-05-25T15:30:12.409Z,7.03
2023-05-25T15:32:59.784Z,7.70
2023-05-25T15:35:47.228Z,7.20
2023-05-25T15:38:35.015Z,5.97
2023-05-25T15:41:23.254Z,7.35
2023-05-25T15:44:12.858Z,11.22
2023-05-25T15:47:00.586Z,11.38
2023-05-25T15:49:47.922Z,10.00
2023-05-25T15:52:35.790Z,7.47
2023-05-25T15:55:23.627Z,7.85
2023-05-25T15:58:11.532Z,11.93
2023-05-25T16:00:59.114Z,6.95
2023-05-25T16:03:46.575Z,7.62
2023-05-25T16:06:33.950Z,11.65
2023-05-25T16:09:21.516Z,8.38
2023-05-25T16:12:09.289Z,7.55
2023-05-25T16:14:56.684Z,8.93
2023-05-25T16:17:44.248Z,7.85
2023-05-25T16:20:31.917Z,10.72
2023-05-25T16:23:19.230Z,10.90
2023-05-25T16:26:09.155Z,12.40
2023-05-25T16:28:56.659Z,9.48
2023-05-25T16:31:44.391Z,8.53
2023-05-25T16:34:32.553Z,9.58
2023-05-25T16:37:19.880Z,8.35
2023-05-25T16:40:08.524Z,9.55
2023-05-25T16:42:56.283Z,7.10
2023-05-25T16:45:44.144Z,8.55
2023-05-25T16:48:31.658Z,12.63
2023-05-25T16:51:19.023Z,10.78
2023-05-25T16:54:06.974Z,9.80
2023-05-25T16:56:54.120Z,8.83
2023-05-25T16:59:41.657Z,10.23
2023-05-25T17:02:29.094Z,10.28
2023-05-25T17:05:16.492Z,10.10
2023-05-25T17:08:03.703Z,8.03
2023-05-25T17:10:51.029Z,13.58
2023-05-25T17:13:38.818Z,6.83
2023-05-25T17:16:26.660Z,6.12
2023-05-25T17:19:15.153Z,11.12
2023-05-25T17:22:02.881Z,8.83
2023-05-25T17:24:50.400Z,9.33
2023-05-25T17:27:37.881Z,8.25
2023-05-25T17:30:25.170Z,8.75
2023-05-25T17:33:12.816Z,8.33
2023-05-25T17:36:00.531Z,10.08
2023-05-25T17:38:48.108Z,8.63
2023-05-25T17:41:35.488Z,9.73
2023-05-25T17:44:22.731Z,10.75
2023-05-25T17:47:11.568Z,7.75
2023-05-25T17:49:59.428Z,11.90
2023-05-25T17:52:46.963Z,7.28
2023-05-25T17:55:34.379Z,8.18
2023-05-25T17:58:22.542Z,7.03
2023-05-25T18:01:10.121Z,11.63
2023-05-25T18:03:57.870Z,7.17
2023-05-25T18:06:45.241Z,5.70
2023-05-25T18:09:32.871Z,6.53
2023-05-25T18:12:20.221Z,7.28
2023-05-25T18:15:09.591Z,7.62
2023-05-25T18:17:56.811Z,10.58
2023-05-25T18:20:44.591Z,8.00
2023-05-25T18:23:32.312Z,5.87
2023-05-25T18:26:19.950Z,10.25
2023-05-25T18:29:07.471Z,7.95
2023-05-25T18:31:56.488Z,7.92
2023-05-25T18:34:45.028Z,8.23
2023-05-25T18:37:34.390Z,6.37
2023-05-25T18:40:21.893Z,19.20
2023-05-25T18:43:09.541Z,8.30
2023-05-25T18:45:57.124Z,9.88
2023-05-25T18:48:44.704Z,8.50
2023-05-25T18:51:33.935Z,8.43
2023-05-25T18:54:21.148Z,8.28
2023-05-25T18:57:08.631Z,8.53
2023-05-25T18:59:56.299Z,8.15
2023-05-25T19:02:44.095Z,8.28
2023-05-25T19:05:31.621Z,9.25
2023-05-25T19:08:19.199Z,8.03
2023-05-25T19:11:06.600Z,7.12
2023-05-25T19:13:54.400Z,10.20
2023-05-25T19:16:41.680Z,10.32
2023-05-25T19:19:29.096Z,11.65
2023-05-25T19:22:16.471Z,7.83
2023-05-25T19:25:04.114Z,8.78
2023-05-25T19:27:51.784Z,5.58
2023-05-25T19:30:39.594Z,6.70
2023-05-25T19:33:27.307Z,6.80
2023-05-25T19:36:14.994Z,6.92
2023-05-25T19:39:02.376Z,12.75
2023-05-25T19:41:50.177Z,8.53
2023-05-25T19:44:39.517Z,7.37
2023-05-25T19:47:28.005Z,9.68
2023-05-25T19:50:15.640Z,10.20
2023-05-25T19:53:05.026Z,8.48
2023-05-25T19:55:52.487Z,13.38
2023-05-25T19:58:40.051Z,8.85
2023-05-25T20:01:27.614Z,6.65
2023-05-25T20:04:15.602Z,9.10
2023-05-25T20:07:03.242Z,7.30
2023-05-25T20:09:50.944Z,9.78
2023-05-25T20:12:38.771Z,13.22
2023-05-25T20:15:26.152Z,8.25
2023-05-25T20:18:13.743Z,9.30
2023-05-25T20:21:01.323Z,6.97
2023-05-25T20:23:48.709Z,9.63
2023-05-25T20:26:36.047Z,8.48
2023-05-25T20:29:24.466Z,9.00
2023-05-25T20:32:12.115Z,16.87
2023-05-25T20:34:59.969Z,12.70
2023-05-25T20:37:47.378Z,11.80
2023-05-25T20:40:34.522Z,9.25
2023-05-25T20:43:21.892Z,10.40
2023-05-25T20:46:10.068Z,8.98
2023-05-25T20:48:58.449Z,11.22
2023-05-25T20:51:47.776Z,12.95
2023-05-25T20:54:36.718Z,10.98
2023-05-25T20:57:24.305Z,11.90
2023-05-25T21:00:15.121Z,7.87
2023-05-25T21:03:04.479Z,11.35
2023-05-25T21:05:51.792Z,8.18
2023-05-25T21:08:39.304Z,9.28
2023-05-25T21:11:26.715Z,12.18
2023-05-25T21:14:14.416Z,14.38
2023-05-25T21:17:01.677Z,13.05
2023-05-25T21:19:48.997Z,13.20
2023-05-25T21:22:37.224Z,12.10
2023-05-25T21:25:24.719Z,11.25
2023-05-25T21:28:12.004Z,16.07
2023-05-25T21:30:59.448Z,13.65
2023-05-25T21:33:47.396Z,13.80
2023-05-25T21:36:34.849Z,10.60
2023-05-25T21:39:22.349Z,15.45
2023-05-25T21:42:10.751Z,15.95
2023-05-25T21:44:58.020Z,15.00
2023-05-25T21:47:45.678Z,14.78
2023-05-25T21:50:33.011Z,14.33
2023-05-25T21:53:21.321Z,16.32
2023-05-25T21:56:09.076Z,17.57
2023-05-25T21:58:56.425Z,16.67
2023-05-25T22:01:44.152Z,17.73
2023-05-25T22:04:31.719Z,13.53
2023-05-25T22:07:19.240Z,13.62
2023-05-25T22:10:07.756Z,15.00
2023-05-25T22:12:55.082Z,12.85
2023-05-25T22:15:42.705Z,16.12
2023-05-25T22:18:30.009Z,13.93
2023-05-25T22:21:17.291Z,18.70
2023-05-25T22:24:04.613Z,15.95
2023-05-25T22:26:52.717Z,14.07
2023-05-25T22:29:39.945Z,12.82
2023-05-25T22:32:27.314Z,12.93
2023-05-25T22:35:14.833Z,12.98
2023-05-25T22:38:02.520Z,14.63
2023-05-25T22:40:50.077Z,12.73
2023-05-25T22:43:37.646Z,13.25
2023-05-25T22:46:25.455Z,9.35
2023-05-25T22:49:12.470Z,10.60
2023-05-25T22:51:59.888Z,13.72
2023-05-25T22:54:47.322Z,12.10
2023-05-25T22:57:35.010Z,10.30
2023-05-25T23:00:22.200Z,9.60
2023-05-25T23:03:09.879Z,10.40
2023-05-25T23:05:57.631Z,15.88
2023-05-25T23:08:46.478Z,10.23
2023-05-25T23:11:33.811Z,11.53
2023-05-25T23:14:21.076Z,15.35
2023-05-25T23:17:08.570Z,11.60
2023-05-25T23:19:56.195Z,12.18
2023-05-25T23:22:44.000Z,13.90
2023-05-25T23:25:31.610Z,13.53
2023-05-25T23:28:19.034Z,10.32
2023-05-25T23:31:06.687Z,9.68
2023-05-25T23:33:54.487Z,8.30
2023-05-25T23:36:42.846Z,12.80
2023-05-25T23:39:30.230Z,12.82
2023-05-25T23:42:18.544Z,15.43
2023-05-25T23:45:07.740Z,11.20
2023-05-25T23:47:55.345Z,13.05
2023-05-25T23:50:42.902Z,12.18
2023-05-25T23:53:30.266Z,10.70
2023-05-25T23:56:18.510Z,9.28
2023-05-25T23:59:06.260Z,9.73
